sensor_id;sensor_type;location;lat;lon;timestamp;pressure;altitude;pressure_sealevel;temperature
75811;BMP280;64449;50.016;19.954;2023-03-21T00:01:55;98708.07;;;12.48
75811;BMP280;64449;50.016;19.954;2023-03-21T00:04:22;98712.64;;;12.47
75811;BMP280;64449;50.016;19.954;2023-03-21T00:06:48;98712.92;;;12.47
75811;BMP280;64449;50.016;19.954;2023-03-21T00:09:14;98711.20;;;12.46
75811;BMP280;64449;50.016;19.954;2023-03-21T00:11:39;98710.40;;;12.46
75811;BMP280;64449;50.016;19.954;2023-03-21T00:14:05;98709.59;;;12.46
75811;BMP280;64449;50.016;19.954;2023-03-21T00:16:32;98703.04;;;12.45
75811;BMP280;64449;50.016;19.954;2023-03-21T00:19:00;98705.29;;;12.43
75811;BMP280;64449;50.016;19.954;2023-03-21T00:21:28;98706.68;;;12.42
75811;BMP280;64449;50.016;19.954;2023-03-21T00:23:57;98700.54;;;12.41
75811;BMP280;64449;50.016;19.954;2023-03-21T00:26:22;98699.91;;;12.40
75811;BMP280;64449;50.016;19.954;2023-03-21T00:28:48;98696.30;;;12.39
75811;BMP280;64449;50.016;19.954;2023-03-21T00:31:14;98696.45;;;12.39
75811;BMP280;64449;50.016;19.954;2023-03-21T00:33:40;98695.02;;;12.38
75811;BMP280;64449;50.016;19.954;2023-03-21T00:36:07;98691.66;;;12.38
75811;BMP280;64449;50.016;19.954;2023-03-21T00:38:34;98692.02;;;12.37
75811;BMP280;64449;50.016;19.954;2023-03-21T00:41:03;98691.09;;;12.36
75811;BMP280;64449;50.016;19.954;2023-03-21T00:43:29;98687.26;;;12.34
75811;BMP280;64449;50.016;19.954;2023-03-21T00:45:56;98692.08;;;12.33
75811;BMP280;64449;50.016;19.954;2023-03-21T00:48:23;98684.23;;;12.32
75811;BMP280;64449;50.016;19.954;2023-03-21T00:50:50;98682.93;;;12.32
75811;BMP280;64449;50.016;19.954;2023-03-21T00:53:16;98682.95;;;12.30
75811;BMP280;64449;50.016;19.954;2023-03-21T00:55:42;98686.77;;;12.27
75811;BMP280;64449;50.016;19.954;2023-03-21T00:58:07;98681.20;;;12.25
75811;BMP280;64449;50.016;19.954;2023-03-21T01:00:33;98679.38;;;12.23
75811;BMP280;64449;50.016;19.954;2023-03-21T01:03:02;98682.25;;;12.22
75811;BMP280;64449;50.016;19.954;2023-03-21T01:05:32;98681.56;;;12.19
75811;BMP280;64449;50.016;19.954;2023-03-21T01:08:18;98680.25;;;12.17
75811;BMP280;64449;50.016;19.954;2023-03-21T01:10:47;98681.02;;;12.14
75811;BMP280;64449;50.016;19.954;2023-03-21T01:13:14;98679.86;;;12.13
75811;BMP280;64449;50.016;19.954;2023-03-21T01:15:46;98680.65;;;12.11
75811;BMP280;64449;50.016;19.954;2023-03-21T01:18:12;98683.58;;;12.09
75811;BMP280;64449;50.016;19.954;2023-03-21T01:20:42;98682.83;;;12.08
75811;BMP280;64449;50.016;19.954;2023-03-21T01:23:09;98681.33;;;12.08
75811;BMP280;64449;50.016;19.954;2023-03-21T01:25:35;98682.98;;;12.06
75811;BMP280;64449;50.016;19.954;2023-03-21T01:28:01;98680.67;;;12.05
75811;BMP280;64449;50.016;19.954;2023-03-21T01:30:26;98679.75;;;12.05
75811;BMP280;64449;50.016;19.954;2023-03-21T01:32:51;98680.80;;;12.05
75811;BMP280;64449;50.016;19.954;2023-03-21T01:35:17;98684.35;;;12.04
75811;BMP280;64449;50.016;19.954;2023-03-21T01:37:42;98681.86;;;12.04
75811;BMP280;64449;50.016;19.954;2023-03-21T01:40:13;98683.06;;;12.05
75811;BMP280;64449;50.016;19.954;2023-03-21T01:42:40;98683.36;;;12.05
75811;BMP280;64449;50.016;19.954;2023-03-21T01:48:11;98684.84;;;12.06
75811;BMP280;64449;50.016;19.954;2023-03-21T01:50:37;98684.39;;;12.07
75811;BMP280;64449;50.016;19.954;2023-03-21T01:53:05;98687.27;;;12.08
75811;BMP280;64449;50.016;19.954;2023-03-21T01:55:31;98686.06;;;12.09
75811;BMP280;64449;50.016;19.954;2023-03-21T01:57:57;98685.15;;;12.10
75811;BMP280;64449;50.016;19.954;2023-03-21T02:00:25;98682.84;;;12.12
75811;BMP280;64449;50.016;19.954;2023-03-21T02:02:53;98684.60;;;12.13
75811;BMP280;64449;50.016;19.954;2023-03-21T02:05:41;98682.50;;;12.14
75811;BMP280;64449;50.016;19.954;2023-03-21T02:08:08;98681.92;;;12.15
75811;BMP280;64449;50.016;19.954;2023-03-21T02:10:34;98684.66;;;12.15
75811;BMP280;64449;50.016;19.954;2023-03-21T02:13:03;98682.71;;;12.15
75811;BMP280;64449;50.016;19.954;2023-03-21T02:15:33;98680.70;;;12.14
75811;BMP280;64449;50.016;19.954;2023-03-21T02:18:13;98679.96;;;12.14
75811;BMP280;64449;50.016;19.954;2023-03-21T02:26:14;98678.40;;;12.13
75811;BMP280;64449;50.016;19.954;2023-03-21T02:28:44;98678.12;;;12.12
75811;BMP280;64449;50.016;19.954;2023-03-21T02:45:10;98679.06;;;12.10
75811;BMP280;64449;50.016;19.954;2023-03-21T02:47:52;98679.86;;;12.09
75811;BMP280;64449;50.016;19.954;2023-03-21T02:50:37;98678.53;;;12.10
75811;BMP280;64449;50.016;19.954;2023-03-21T02:53:07;98678.45;;;12.09
75811;BMP280;64449;50.016;19.954;2023-03-21T02:55:35;98677.91;;;12.09
75811;BMP280;64449;50.016;19.954;2023-03-21T02:58:02;98674.55;;;12.09
75811;BMP280;64449;50.016;19.954;2023-03-21T03:00:31;98676.17;;;12.09
75811;BMP280;64449;50.016;19.954;2023-03-21T03:02:58;98677.73;;;12.11
75811;BMP280;64449;50.016;19.954;2023-03-21T03:05:26;98679.94;;;12.11
75811;BMP280;64449;50.016;19.954;2023-03-21T03:18:58;98674.45;;;12.08
75811;BMP280;64449;50.016;19.954;2023-03-21T03:24:35;98677.47;;;12.06
75811;BMP280;64449;50.016;19.954;2023-03-21T03:27:09;98678.64;;;12.05
75811;BMP280;64449;50.016;19.954;2023-03-21T03:29:39;98679.38;;;12.04
75811;BMP280;64449;50.016;19.954;2023-03-21T03:32:18;98676.63;;;12.03
75811;BMP280;64449;50.016;19.954;2023-03-21T03:34:51;98679.48;;;12.04
75811;BMP280;64449;50.016;19.954;2023-03-21T03:37:23;98681.83;;;12.03
75811;BMP280;64449;50.016;19.954;2023-03-21T03:40:02;98681.45;;;12.04
75811;BMP280;64449;50.016;19.954;2023-03-21T03:42:40;98680.02;;;12.04
75811;BMP280;64449;50.016;19.954;2023-03-21T03:45:08;98678.70;;;12.04
75811;BMP280;64449;50.016;19.954;2023-03-21T03:47:41;98679.02;;;12.03
75811;BMP280;64449;50.016;19.954;2023-03-21T03:50:15;98681.34;;;12.03
75811;BMP280;64449;50.016;19.954;2023-03-21T03:52:49;98682.79;;;12.04
75811;BMP280;64449;50.016;19.954;2023-03-21T03:55:18;98682.21;;;12.04
75811;BMP280;64449;50.016;19.954;2023-03-21T03:57:46;98682.29;;;12.04
75811;BMP280;64449;50.016;19.954;2023-03-21T04:00:13;98684.17;;;12.03
75811;BMP280;64449;50.016;19.954;2023-03-21T04:02:40;98685.41;;;12.03
75811;BMP280;64449;50.016;19.954;2023-03-21T04:05:06;98683.43;;;12.03
75811;BMP280;64449;50.016;19.954;2023-03-21T04:07:32;98682.91;;;12.03
75811;BMP280;64449;50.016;19.954;2023-03-21T04:09:58;98683.52;;;12.03
75811;BMP280;64449;50.016;19.954;2023-03-21T04:12:24;98686.02;;;12.03
75811;BMP280;64449;50.016;19.954;2023-03-21T04:14:49;98683.72;;;12.03
75811;BMP280;64449;50.016;19.954;2023-03-21T04:17:16;98683.80;;;12.04
75811;BMP280;64449;50.016;19.954;2023-03-21T04:19:41;98682.80;;;12.02
75811;BMP280;64449;50.016;19.954;2023-03-21T04:22:07;98679.97;;;12.01
75811;BMP280;64449;50.016;19.954;2023-03-21T04:24:33;98676.50;;;11.99
75811;BMP280;64449;50.016;19.954;2023-03-21T04:27:01;98675.66;;;11.96
75811;BMP280;64449;50.016;19.954;2023-03-21T04:29:27;98676.23;;;11.92
75811;BMP280;64449;50.016;19.954;2023-03-21T04:31:54;98677.02;;;11.92
75811;BMP280;64449;50.016;19.954;2023-03-21T04:34:20;98680.39;;;11.91
75811;BMP280;64449;50.016;19.954;2023-03-21T04:36:51;98678.75;;;11.90
75811;BMP280;64449;50.016;19.954;2023-03-21T04:39:18;98676.36;;;11.89
75811;BMP280;64449;50.016;19.954;2023-03-21T04:41:45;98675.79;;;11.88
75811;BMP280;64449;50.016;19.954;2023-03-21T04:44:11;98678.80;;;11.87
75811;BMP280;64449;50.016;19.954;2023-03-21T04:46:38;98677.09;;;11.85
75811;BMP280;64449;50.016;19.954;2023-03-21T04:49:04;98675.59;;;11.83
75811;BMP280;64449;50.016;19.954;2023-03-21T04:51:32;98676.25;;;11.81
75811;BMP280;64449;50.016;19.954;2023-03-21T04:53:57;98679.98;;;11.79
75811;BMP280;64449;50.016;19.954;2023-03-21T04:56:25;98684.84;;;11.79
75811;BMP280;64449;50.016;19.954;2023-03-21T04:58:57;98685.48;;;11.78
75811;BMP280;64449;50.016;19.954;2023-03-21T05:01:23;98689.09;;;11.79
75811;BMP280;64449;50.016;19.954;2023-03-21T05:03:50;98691.25;;;11.77
75811;BMP280;64449;50.016;19.954;2023-03-21T05:06:16;98689.92;;;11.77
75811;BMP280;64449;50.016;19.954;2023-03-21T05:08:42;98688.73;;;11.76
75811;BMP280;64449;50.016;19.954;2023-03-21T05:11:07;98686.61;;;11.75
75811;BMP280;64449;50.016;19.954;2023-03-21T05:13:33;98687.96;;;11.76
75811;BMP280;64449;50.016;19.954;2023-03-21T05:15:58;98688.64;;;11.76
75811;BMP280;64449;50.016;19.954;2023-03-21T05:18:24;98688.02;;;11.76
75811;BMP280;64449;50.016;19.954;2023-03-21T05:20:52;98686.60;;;11.76
75811;BMP280;64449;50.016;19.954;2023-03-21T05:23:20;98686.06;;;11.74
75811;BMP280;64449;50.016;19.954;2023-03-21T05:25:45;98687.69;;;11.73
75811;BMP280;64449;50.016;19.954;2023-03-21T05:28:11;98690.40;;;11.72
75811;BMP280;64449;50.016;19.954;2023-03-21T05:30:37;98690.48;;;11.72
75811;BMP280;64449;50.016;19.954;2023-03-21T05:33:03;98691.88;;;11.71
75811;BMP280;64449;50.016;19.954;2023-03-21T05:35:29;98691.02;;;11.71
75811;BMP280;64449;50.016;19.954;2023-03-21T05:37:55;98695.85;;;11.70
75811;BMP280;64449;50.016;19.954;2023-03-21T05:40:21;98698.52;;;11.70
75811;BMP280;64449;50.016;19.954;2023-03-21T05:42:47;98701.34;;;11.70
75811;BMP280;64449;50.016;19.954;2023-03-21T05:45:14;98704.63;;;11.70
75811;BMP280;64449;50.016;19.954;2023-03-21T05:47:39;98712.20;;;11.70
75811;BMP280;64449;50.016;19.954;2023-03-21T05:50:05;98711.32;;;11.70
75811;BMP280;64449;50.016;19.954;2023-03-21T05:52:31;98713.73;;;11.70
75811;BMP280;64449;50.016;19.954;2023-03-21T05:54:57;98713.50;;;11.70
75811;BMP280;64449;50.016;19.954;2023-03-21T05:57:23;98716.71;;;11.69
75811;BMP280;64449;50.016;19.954;2023-03-21T05:59:48;98724.64;;;11.68
75811;BMP280;64449;50.016;19.954;2023-03-21T06:02:13;98724.60;;;11.68
75811;BMP280;64449;50.016;19.954;2023-03-21T06:04:39;98725.63;;;11.67
75811;BMP280;64449;50.016;19.954;2023-03-21T06:07:05;98724.22;;;11.67
75811;BMP280;64449;50.016;19.954;2023-03-21T06:09:30;98721.78;;;11.68
75811;BMP280;64449;50.016;19.954;2023-03-21T06:11:57;98723.75;;;11.68
75811;BMP280;64449;50.016;19.954;2023-03-21T06:14:23;98722.48;;;11.68
75811;BMP280;64449;50.016;19.954;2023-03-21T06:16:49;98723.23;;;11.67
75811;BMP280;64449;50.016;19.954;2023-03-21T06:19:15;98721.48;;;11.66
75811;BMP280;64449;50.016;19.954;2023-03-21T06:21:40;98721.08;;;11.65
75811;BMP280;64449;50.016;19.954;2023-03-21T06:24:06;98721.69;;;11.64
75811;BMP280;64449;50.016;19.954;2023-03-21T06:26:31;98720.46;;;11.63
75811;BMP280;64449;50.016;19.954;2023-03-21T06:28:57;98718.70;;;11.63
75811;BMP280;64449;50.016;19.954;2023-03-21T06:31:22;98718.45;;;11.63
75811;BMP280;64449;50.016;19.954;2023-03-21T06:33:49;98720.85;;;11.63
75811;BMP280;64449;50.016;19.954;2023-03-21T06:36:16;98720.29;;;11.62
75811;BMP280;64449;50.016;19.954;2023-03-21T06:38:41;98718.52;;;11.62
75811;BMP280;64449;50.016;19.954;2023-03-21T06:41:07;98718.77;;;11.63
75811;BMP280;64449;50.016;19.954;2023-03-21T06:43:33;98722.70;;;11.62
75811;BMP280;64449;50.016;19.954;2023-03-21T06:45:59;98721.95;;;11.62
75811;BMP280;64449;50.016;19.954;2023-03-21T06:48:26;98723.83;;;11.61
75811;BMP280;64449;50.016;19.954;2023-03-21T06:50:52;98724.31;;;11.61
75811;BMP280;64449;50.016;19.954;2023-03-21T06:53:19;98724.41;;;11.60
75811;BMP280;64449;50.016;19.954;2023-03-21T06:55:52;98730.48;;;11.60
75811;BMP280;64449;50.016;19.954;2023-03-21T06:58:18;98728.66;;;11.58
75811;BMP280;64449;50.016;19.954;2023-03-21T07:00:45;98731.50;;;11.59
75811;BMP280;64449;50.016;19.954;2023-03-21T07:03:11;98731.00;;;11.60
75811;BMP280;64449;50.016;19.954;2023-03-21T07:05:37;98730.02;;;11.61
75811;BMP280;64449;50.016;19.954;2023-03-21T07:08:05;98733.23;;;11.62
75811;BMP280;64449;50.016;19.954;2023-03-21T07:10:30;98729.42;;;11.64
75811;BMP280;64449;50.016;19.954;2023-03-21T07:12:58;98731.06;;;11.67
75811;BMP280;64449;50.016;19.954;2023-03-21T07:15:24;98733.60;;;11.71
75811;BMP280;64449;50.016;19.954;2023-03-21T07:17:50;98734.14;;;11.76
75811;BMP280;64449;50.016;19.954;2023-03-21T07:20:16;98733.59;;;11.83
75811;BMP280;64449;50.016;19.954;2023-03-21T07:22:41;98733.64;;;11.90
75811;BMP280;64449;50.016;19.954;2023-03-21T07:25:08;98728.76;;;11.99
75811;BMP280;64449;50.016;19.954;2023-03-21T07:27:34;98729.04;;;12.08
75811;BMP280;64449;50.016;19.954;2023-03-21T07:29:59;98726.77;;;12.19
75811;BMP280;64449;50.016;19.954;2023-03-21T07:32:25;98726.62;;;12.37
75811;BMP280;64449;50.016;19.954;2023-03-21T07:34:54;98726.45;;;12.69
75811;BMP280;64449;50.016;19.954;2023-03-21T07:37:20;98724.92;;;13.36
75811;BMP280;64449;50.016;19.954;2023-03-21T07:39:45;98722.44;;;13.78
75811;BMP280;64449;50.016;19.954;2023-03-21T07:42:11;98720.83;;;14.04
75811;BMP280;64449;50.016;19.954;2023-03-21T07:44:36;98712.23;;;14.22
75811;BMP280;64449;50.016;19.954;2023-03-21T07:47:03;98716.84;;;14.46
75811;BMP280;64449;50.016;19.954;2023-03-21T07:49:29;98722.48;;;14.58
75811;BMP280;64449;50.016;19.954;2023-03-21T07:51:55;98721.64;;;14.59
75811;BMP280;64449;50.016;19.954;2023-03-21T07:54:20;98724.64;;;14.53
75811;BMP280;64449;50.016;19.954;2023-03-21T07:56:47;98724.52;;;14.45
75811;BMP280;64449;50.016;19.954;2023-03-21T07:59:12;98725.35;;;14.37
75811;BMP280;64449;50.016;19.954;2023-03-21T08:01:38;98725.79;;;14.30
75811;BMP280;64449;50.016;19.954;2023-03-21T08:04:03;98726.00;;;14.24
75811;BMP280;64449;50.016;19.954;2023-03-21T08:06:29;98728.30;;;14.21
75811;BMP280;64449;50.016;19.954;2023-03-21T08:08:57;98727.10;;;14.22
75811;BMP280;64449;50.016;19.954;2023-03-21T08:11:22;98724.55;;;14.41
75811;BMP280;64449;50.016;19.954;2023-03-21T08:13:49;98727.56;;;14.60
75811;BMP280;64449;50.016;19.954;2023-03-21T08:16:16;98720.35;;;14.72
75811;BMP280;64449;50.016;19.954;2023-03-21T08:18:41;98721.27;;;14.76
75811;BMP280;64449;50.016;19.954;2023-03-21T08:21:07;98720.66;;;14.82
75811;BMP280;64449;50.016;19.954;2023-03-21T08:23:32;98723.61;;;14.89
75811;BMP280;64449;50.016;19.954;2023-03-21T08:25:58;98723.66;;;14.98
75811;BMP280;64449;50.016;19.954;2023-03-21T08:28:24;98728.78;;;15.02
75811;BMP280;64449;50.016;19.954;2023-03-21T08:30:49;98723.60;;;14.99
75811;BMP280;64449;50.016;19.954;2023-03-21T08:33:15;98724.35;;;14.93
75811;BMP280;64449;50.016;19.954;2023-03-21T08:35:43;98721.36;;;14.86
75811;BMP280;64449;50.016;19.954;2023-03-21T08:38:09;98726.35;;;14.78
75811;BMP280;64449;50.016;19.954;2023-03-21T08:40:35;98732.05;;;14.69
75811;BMP280;64449;50.016;19.954;2023-03-21T08:43:00;98738.02;;;14.60
75811;BMP280;64449;50.016;19.954;2023-03-21T08:45:26;98735.59;;;14.50
75811;BMP280;64449;50.016;19.954;2023-03-21T08:47:52;98738.27;;;14.41
75811;BMP280;64449;50.016;19.954;2023-03-21T08:50:21;98746.49;;;14.32
75811;BMP280;64449;50.016;19.954;2023-03-21T08:52:48;98747.93;;;14.25
75811;BMP280;64449;50.016;19.954;2023-03-21T08:55:14;98748.69;;;14.18
75811;BMP280;64449;50.016;19.954;2023-03-21T08:57:40;98749.13;;;14.12
75811;BMP280;64449;50.016;19.954;2023-03-21T09:00:08;98755.22;;;14.07
75811;BMP280;64449;50.016;19.954;2023-03-21T09:02:37;98760.87;;;14.04
75811;BMP280;64449;50.016;19.954;2023-03-21T09:05:03;98760.70;;;14.01
75811;BMP280;64449;50.016;19.954;2023-03-21T09:07:30;98759.66;;;13.99
75811;BMP280;64449;50.016;19.954;2023-03-21T09:09:58;98763.76;;;13.97
75811;BMP280;64449;50.016;19.954;2023-03-21T09:12:24;98763.98;;;13.96
75811;BMP280;64449;50.016;19.954;2023-03-21T09:14:50;98762.61;;;13.97
75811;BMP280;64449;50.016;19.954;2023-03-21T09:17:17;98764.30;;;14.00
75811;BMP280;64449;50.016;19.954;2023-03-21T09:19:43;98762.85;;;14.06
75811;BMP280;64449;50.016;19.954;2023-03-21T09:22:11;98759.81;;;14.25
75811;BMP280;64449;50.016;19.954;2023-03-21T09:24:45;98762.94;;;14.55
75811;BMP280;64449;50.016;19.954;2023-03-21T09:27:14;98761.55;;;14.85
75811;BMP280;64449;50.016;19.954;2023-03-21T09:29:42;98760.35;;;15.08
75811;BMP280;64449;50.016;19.954;2023-03-21T09:32:10;98759.36;;;15.20
75811;BMP280;64449;50.016;19.954;2023-03-21T09:34:37;98756.84;;;15.27
75811;BMP280;64449;50.016;19.954;2023-03-21T09:37:06;98758.02;;;15.30
75811;BMP280;64449;50.016;19.954;2023-03-21T09:39:35;98759.94;;;15.32
75811;BMP280;64449;50.016;19.954;2023-03-21T09:49:30;98757.56;;;15.29
75811;BMP280;64449;50.016;19.954;2023-03-21T09:54:45;98756.19;;;15.39
75811;BMP280;64449;50.016;19.954;2023-03-21T09:57:26;98756.08;;;15.45
75811;BMP280;64449;50.016;19.954;2023-03-21T09:59:55;98755.64;;;15.49
75811;BMP280;64449;50.016;19.954;2023-03-21T10:02:42;98756.77;;;15.47
75811;BMP280;64449;50.016;19.954;2023-03-21T10:05:22;98755.77;;;15.42
75811;BMP280;64449;50.016;19.954;2023-03-21T10:07:57;98755.48;;;15.39
75811;BMP280;64449;50.016;19.954;2023-03-21T10:10:31;98753.86;;;15.34
75811;BMP280;64449;50.016;19.954;2023-03-21T10:12:58;98753.05;;;15.28
75811;BMP280;64449;50.016;19.954;2023-03-21T10:15:25;98755.21;;;15.21
75811;BMP280;64449;50.016;19.954;2023-03-21T10:17:54;98754.45;;;15.14
75811;BMP280;64449;50.016;19.954;2023-03-21T10:20:25;98756.21;;;15.09
75811;BMP280;64449;50.016;19.954;2023-03-21T10:22:54;98759.64;;;15.06
75811;BMP280;64449;50.016;19.954;2023-03-21T10:25:42;98756.80;;;15.03
75811;BMP280;64449;50.016;19.954;2023-03-21T10:28:14;98756.44;;;15.01
75811;BMP280;64449;50.016;19.954;2023-03-21T10:33:17;98755.95;;;14.93
75811;BMP280;64449;50.016;19.954;2023-03-21T10:35:49;98759.41;;;14.91
75811;BMP280;64449;50.016;19.954;2023-03-21T10:38:18;98753.44;;;14.89
75811;BMP280;64449;50.016;19.954;2023-03-21T10:40:45;98751.09;;;14.88
75811;BMP280;64449;50.016;19.954;2023-03-21T10:45:50;98760.24;;;14.87
75811;BMP280;64449;50.016;19.954;2023-03-21T10:48:16;98759.17;;;14.85
75811;BMP280;64449;50.016;19.954;2023-03-21T10:50:46;98761.94;;;14.83
75811;BMP280;64449;50.016;19.954;2023-03-21T10:53:22;98758.23;;;14.79
75811;BMP280;64449;50.016;19.954;2023-03-21T10:55:54;98760.75;;;14.77
75811;BMP280;64449;50.016;19.954;2023-03-21T10:58:25;98762.02;;;14.75
75811;BMP280;64449;50.016;19.954;2023-03-21T11:00:57;98760.36;;;14.73
75811;BMP280;64449;50.016;19.954;2023-03-21T11:03:30;98759.11;;;14.70
75811;BMP280;64449;50.016;19.954;2023-03-21T11:06:16;98756.20;;;14.66
75811;BMP280;64449;50.016;19.954;2023-03-21T11:08:55;98756.55;;;14.62
75811;BMP280;64449;50.016;19.954;2023-03-21T11:11:26;98756.68;;;14.60
75811;BMP280;64449;50.016;19.954;2023-03-21T11:14:01;98757.50;;;14.58
75811;BMP280;64449;50.016;19.954;2023-03-21T11:16:37;98758.45;;;14.58
75811;BMP280;64449;50.016;19.954;2023-03-21T11:19:14;98760.54;;;14.57
75811;BMP280;64449;50.016;19.954;2023-03-21T11:21:40;98758.23;;;14.58
75811;BMP280;64449;50.016;19.954;2023-03-21T11:24:11;98757.13;;;14.58
75811;BMP280;64449;50.016;19.954;2023-03-21T11:26:39;98755.93;;;14.58
75811;BMP280;64449;50.016;19.954;2023-03-21T11:29:32;98757.19;;;14.58
75811;BMP280;64449;50.016;19.954;2023-03-21T11:32:24;98754.94;;;14.57
75811;BMP280;64449;50.016;19.954;2023-03-21T11:35:03;98749.92;;;14.56
75811;BMP280;64449;50.016;19.954;2023-03-21T11:37:43;98750.49;;;14.55
75811;BMP280;64449;50.016;19.954;2023-03-21T11:40:32;98746.43;;;14.55
75811;BMP280;64449;50.016;19.954;2023-03-21T11:43:01;98741.91;;;14.55
75811;BMP280;64449;50.016;19.954;2023-03-21T11:45:32;98743.67;;;14.56
75811;BMP280;64449;50.016;19.954;2023-03-21T11:47:59;98741.27;;;14.58
75811;BMP280;64449;50.016;19.954;2023-03-21T11:50:32;98741.10;;;14.58
75811;BMP280;64449;50.016;19.954;2023-03-21T11:55:40;98738.73;;;14.57
75811;BMP280;64449;50.016;19.954;2023-03-21T11:58:35;98735.92;;;14.57
75811;BMP280;64449;50.016;19.954;2023-03-21T12:14:21;98729.17;;;14.37
75811;BMP280;64449;50.016;19.954;2023-03-21T12:19:38;98729.91;;;14.28
75811;BMP280;64449;50.016;19.954;2023-03-21T12:22:21;98730.40;;;14.26
75811;BMP280;64449;50.016;19.954;2023-03-21T12:24:53;98731.83;;;14.25
75811;BMP280;64449;50.016;19.954;2023-03-21T12:30:18;98728.35;;;14.24
75811;BMP280;64449;50.016;19.954;2023-03-21T12:33:02;98724.70;;;14.23
75811;BMP280;64449;50.016;19.954;2023-03-21T12:38:23;98720.27;;;14.26
75811;BMP280;64449;50.016;19.954;2023-03-21T12:46:00;98713.53;;;14.26
75811;BMP280;64449;50.016;19.954;2023-03-21T12:51:04;98711.77;;;14.23
75811;BMP280;64449;50.016;19.954;2023-03-21T12:53:48;98713.52;;;14.22
75811;BMP280;64449;50.016;19.954;2023-03-21T12:56:31;98713.08;;;14.19
75811;BMP280;64449;50.016;19.954;2023-03-21T13:01:44;98713.09;;;14.13
75811;BMP280;64449;50.016;19.954;2023-03-21T13:04:34;98708.53;;;14.09
75811;BMP280;64449;50.016;19.954;2023-03-21T13:07:02;98710.56;;;14.08
75811;BMP280;64449;50.016;19.954;2023-03-21T13:09:38;98709.75;;;14.07
75811;BMP280;64449;50.016;19.954;2023-03-21T13:14:44;98708.17;;;14.07
75811;BMP280;64449;50.016;19.954;2023-03-21T13:17:33;98707.87;;;14.06
75811;BMP280;64449;50.016;19.954;2023-03-21T13:23:03;98704.97;;;14.03
75811;BMP280;64449;50.016;19.954;2023-03-21T13:25:31;98702.91;;;14.02
75811;BMP280;64449;50.016;19.954;2023-03-21T13:28:03;98701.86;;;14.00
75811;BMP280;64449;50.016;19.954;2023-03-21T13:30:30;98701.73;;;13.97
75811;BMP280;64449;50.016;19.954;2023-03-21T13:33:15;98699.57;;;13.96
75811;BMP280;64449;50.016;19.954;2023-03-21T13:35:58;98696.80;;;13.94
75811;BMP280;64449;50.016;19.954;2023-03-21T13:38:31;98697.85;;;13.91
75811;BMP280;64449;50.016;19.954;2023-03-21T13:41:07;98694.52;;;13.89
75811;BMP280;64449;50.016;19.954;2023-03-21T13:51:22;98692.21;;;13.85
75811;BMP280;64449;50.016;19.954;2023-03-21T13:59:12;98691.45;;;13.84
75811;BMP280;64449;50.016;19.954;2023-03-21T14:01:40;98689.80;;;13.84
75811;BMP280;64449;50.016;19.954;2023-03-21T14:04:19;98690.09;;;13.84
75811;BMP280;64449;50.016;19.954;2023-03-21T14:06:49;98685.25;;;13.83
75811;BMP280;64449;50.016;19.954;2023-03-21T14:09:39;98686.85;;;13.82
75811;BMP280;64449;50.016;19.954;2023-03-21T14:12:11;98687.16;;;13.81
75811;BMP280;64449;50.016;19.954;2023-03-21T14:14:46;98686.22;;;13.79
75811;BMP280;64449;50.016;19.954;2023-03-21T14:17:23;98687.34;;;13.78
75811;BMP280;64449;50.016;19.954;2023-03-21T14:19:55;98686.75;;;13.76
75811;BMP280;64449;50.016;19.954;2023-03-21T14:22:21;98689.20;;;13.74
75811;BMP280;64449;50.016;19.954;2023-03-21T14:24:48;98692.09;;;13.73
75811;BMP280;64449;50.016;19.954;2023-03-21T14:27:13;98704.85;;;13.71
75811;BMP280;64449;50.016;19.954;2023-03-21T14:29:39;98709.52;;;13.69
75811;BMP280;64449;50.016;19.954;2023-03-21T14:32:13;98708.55;;;13.65
75811;BMP280;64449;50.016;19.954;2023-03-21T14:34:39;98708.65;;;13.62
75811;BMP280;64449;50.016;19.954;2023-03-21T14:37:10;98706.36;;;13.59
75811;BMP280;64449;50.016;19.954;2023-03-21T14:39:35;98704.65;;;13.56
75811;BMP280;64449;50.016;19.954;2023-03-21T14:42:04;98703.20;;;13.52
75811;BMP280;64449;50.016;19.954;2023-03-21T14:44:47;98705.60;;;13.49
75811;BMP280;64449;50.016;19.954;2023-03-21T14:47:21;98704.58;;;13.45
75811;BMP280;64449;50.016;19.954;2023-03-21T14:49:48;98704.13;;;13.42
75811;BMP280;64449;50.016;19.954;2023-03-21T14:52:19;98703.03;;;13.40
75811;BMP280;64449;50.016;19.954;2023-03-21T14:54:46;98701.57;;;13.40
75811;BMP280;64449;50.016;19.954;2023-03-21T14:57:15;98698.82;;;13.40
75811;BMP280;64449;50.016;19.954;2023-03-21T14:59:42;98699.25;;;13.41
75811;BMP280;64449;50.016;19.954;2023-03-21T15:02:24;98695.80;;;13.40
75811;BMP280;64449;50.016;19.954;2023-03-21T15:04:55;98700.59;;;13.40
75811;BMP280;64449;50.016;19.954;2023-03-21T15:09:56;98700.53;;;13.39
75811;BMP280;64449;50.016;19.954;2023-03-21T15:12:22;98697.07;;;13.37
75811;BMP280;64449;50.016;19.954;2023-03-21T15:14:48;98696.35;;;13.37
75811;BMP280;64449;50.016;19.954;2023-03-21T15:17:14;98696.56;;;13.36
75811;BMP280;64449;50.016;19.954;2023-03-21T15:19:40;98694.04;;;13.36
75811;BMP280;64449;50.016;19.954;2023-03-21T15:24:52;98687.56;;;13.34
75811;BMP280;64449;50.016;19.954;2023-03-21T15:27:23;98687.78;;;13.33
75811;BMP280;64449;50.016;19.954;2023-03-21T15:29:50;98686.31;;;13.32
75811;BMP280;64449;50.016;19.954;2023-03-21T15:32:20;98688.27;;;13.30
75811;BMP280;64449;50.016;19.954;2023-03-21T15:34:48;98687.99;;;13.29
75811;BMP280;64449;50.016;19.954;2023-03-21T15:37:25;98687.12;;;13.25
75811;BMP280;64449;50.016;19.954;2023-03-21T15:39:51;98690.23;;;13.23
75811;BMP280;64449;50.016;19.954;2023-03-21T15:42:33;98691.32;;;13.23
75811;BMP280;64449;50.016;19.954;2023-03-21T15:45:28;98691.56;;;13.22
75811;BMP280;64449;50.016;19.954;2023-03-21T15:47:59;98690.98;;;13.20
75811;BMP280;64449;50.016;19.954;2023-03-21T15:50:38;98685.86;;;13.17
75811;BMP280;64449;50.016;19.954;2023-03-21T15:53:16;98683.91;;;13.16
75811;BMP280;64449;50.016;19.954;2023-03-21T15:55:50;98687.61;;;13.14
75811;BMP280;64449;50.016;19.954;2023-03-21T15:58:21;98688.37;;;13.11
75811;BMP280;64449;50.016;19.954;2023-03-21T16:00:53;98687.83;;;13.10